createdAt,value
2022-11-03T00:01:50.056Z,8.73
2022-11-03T00:04:54.486Z,8.72
2022-11-03T00:07:58.410Z,8.67
2022-11-03T00:11:04.387Z,8.65
2022-11-03T00:14:10.087Z,8.70
2022-11-03T00:17:13.716Z,8.55
2022-11-03T00:20:17.541Z,8.55
2022-11-03T00:23:21.487Z,8.66
2022-11-03T00:26:32.825Z,8.63
2022-11-03T00:29:36.718Z,8.68
2022-11-03T00:32:40.510Z,8.64
2022-11-03T00:35:44.660Z,8.60
2022-11-03T00:38:48.833Z,8.56
2022-11-03T00:41:53.806Z,8.56
2022-11-03T00:44:57.744Z,8.57
2022-11-03T00:48:20.091Z,8.53
2022-11-03T00:51:27.161Z,8.47
2022-11-03T00:54:30.823Z,8.45
2022-11-03T00:57:34.631Z,8.49
2022-11-03T01:00:38.670Z,8.44
2022-11-03T01:04:03.013Z,8.40
2022-11-03T01:07:07.657Z,8.32
2022-11-03T01:10:11.794Z,8.33
2022-11-03T01:13:15.537Z,8.38
2022-11-03T01:16:20.125Z,8.36
2022-11-03T01:19:25.328Z,8.28
2022-11-03T01:22:29.368Z,8.43
2022-11-03T01:25:35.638Z,8.37
2022-11-03T01:28:41.506Z,8.25
2022-11-03T01:31:45.646Z,8.28
2022-11-03T01:34:49.776Z,8.32
2022-11-03T01:37:54.407Z,8.25
2022-11-03T01:40:59.006Z,8.25
2022-11-03T01:44:09.060Z,8.18
2022-11-03T01:47:23.193Z,8.18
2022-11-03T01:50:27.344Z,8.16
2022-11-03T01:53:31.748Z,8.17
2022-11-03T01:56:40.291Z,8.11
2022-11-03T01:59:46.560Z,8.08
2022-11-03T02:02:50.791Z,8.10
2022-11-03T02:05:56.213Z,8.10
2022-11-03T02:09:04.651Z,8.10
2022-11-03T02:12:10.056Z,8.07
2022-11-03T02:15:16.661Z,8.09
2022-11-03T02:18:25.660Z,8.07
2022-11-03T02:21:59.500Z,8.05
2022-11-03T02:25:14.640Z,8.02
2022-11-03T02:28:21.165Z,8.05
2022-11-03T02:31:38.013Z,8.07
2022-11-03T02:34:49.162Z,7.98
2022-11-03T02:37:58.297Z,8.02
2022-11-03T02:41:07.499Z,8.10
2022-11-03T02:44:15.446Z,8.10
2022-11-03T02:47:20.566Z,8.04
2022-11-03T02:50:29.447Z,8.03
2022-11-03T02:53:38.399Z,8.02
2022-11-03T02:56:50.096Z,8.01
2022-11-03T03:00:03.638Z,8.05
2022-11-03T03:03:13.865Z,8.03
2022-11-03T03:06:28.923Z,8.02
2022-11-03T03:09:40.258Z,8.00
2022-11-03T03:12:49.464Z,7.98
2022-11-03T03:16:06.436Z,7.95
2022-11-03T03:19:32.020Z,7.99
2022-11-03T03:22:55.500Z,7.97
2022-11-03T03:26:13.859Z,7.97
2022-11-03T03:29:23.488Z,8.04
2022-11-03T03:32:34.674Z,8.00
2022-11-03T03:35:41.548Z,7.97
2022-11-03T03:38:49.719Z,8.02
2022-11-03T03:41:55.139Z,8.19
2022-11-03T03:45:00.689Z,8.14
2022-11-03T03:48:06.387Z,8.07
2022-11-03T03:51:12.617Z,8.09
2022-11-03T03:54:16.802Z,8.07
2022-11-03T03:57:23.345Z,8.08
2022-11-03T04:00:27.216Z,8.13
2022-11-03T04:03:31.113Z,8.11
2022-11-03T04:06:35.411Z,8.03
2022-11-03T04:09:39.538Z,8.08
2022-11-03T04:13:03.363Z,8.06
2022-11-03T04:16:27.568Z,8.00
2022-11-03T04:19:50.461Z,8.07
2022-11-03T04:22:54.516Z,8.02
2022-11-03T04:25:59.232Z,8.09
2022-11-03T04:29:06.740Z,8.15
2022-11-03T04:32:16.217Z,8.17
2022-11-03T04:35:24.133Z,8.02
2022-11-03T04:38:29.333Z,8.04
2022-11-03T04:41:33.538Z,8.00
2022-11-03T04:44:37.769Z,8.03
2022-11-03T04:47:41.957Z,7.97
2022-11-03T04:50:47.352Z,7.89
2022-11-03T04:53:55.215Z,7.84
2022-11-03T04:56:59.399Z,7.79
2022-11-03T05:00:03.823Z,7.74
2022-11-03T05:03:14.830Z,7.77
2022-11-03T05:06:21.520Z,7.74
2022-11-03T05:09:30.361Z,7.74
2022-11-03T05:12:34.561Z,7.71
2022-11-03T05:15:43.262Z,7.67
2022-11-03T05:18:49.656Z,7.63
2022-11-03T05:21:56.831Z,7.63
2022-11-03T05:25:03.691Z,7.62
2022-11-03T05:28:30.091Z,7.69
2022-11-03T05:31:36.701Z,7.61
2022-11-03T05:34:47.543Z,7.56
2022-11-03T05:37:51.275Z,7.58
2022-11-03T05:41:03.417Z,7.51
2022-11-03T05:44:36.855Z,7.52
2022-11-03T05:47:44.187Z,7.47
2022-11-03T05:50:48.402Z,7.51
2022-11-03T05:53:55.738Z,7.51
2022-11-03T05:57:01.162Z,7.51
2022-11-03T06:00:08.410Z,7.48
2022-11-03T06:03:19.385Z,7.45
2022-11-03T06:06:32.350Z,7.50
2022-11-03T06:09:36.495Z,7.54
2022-11-03T06:12:40.694Z,7.54
2022-11-03T06:15:47.586Z,7.52
2022-11-03T06:18:51.939Z,7.68
2022-11-03T06:21:59.074Z,7.72
2022-11-03T06:25:19.896Z,7.60
2022-11-03T06:28:29.808Z,7.68
2022-11-03T06:31:34.269Z,7.69
2022-11-03T06:34:49.271Z,7.68
2022-11-03T06:37:53.920Z,7.74
2022-11-03T06:40:58.782Z,7.79
2022-11-03T06:44:20.211Z,7.99
2022-11-03T06:47:26.467Z,8.05
2022-11-03T06:50:34.434Z,8.08
2022-11-03T06:53:38.442Z,8.07
2022-11-03T06:56:42.408Z,8.09
2022-11-03T06:59:46.664Z,8.14
2022-11-03T07:02:59.435Z,8.22
2022-11-03T07:06:24.634Z,8.26
2022-11-03T07:09:29.080Z,8.32
2022-11-03T07:12:33.407Z,8.33
2022-11-03T07:15:39.721Z,8.34
2022-11-03T07:18:44.732Z,8.36
2022-11-03T07:21:56.272Z,8.33
2022-11-03T07:25:03.731Z,8.36
2022-11-03T07:28:10.331Z,8.39
2022-11-03T07:31:20.041Z,8.45
2022-11-03T07:34:27.553Z,8.56
2022-11-03T07:37:31.978Z,8.56
2022-11-03T07:40:37.363Z,8.63
2022-11-03T07:43:41.439Z,8.66
2022-11-03T07:46:45.445Z,8.78
2022-11-03T07:49:49.363Z,8.81
2022-11-03T07:52:53.409Z,8.88
2022-11-03T07:55:58.773Z,9.07
2022-11-03T07:59:08.753Z,9.21
2022-11-03T08:02:34.344Z,9.66
2022-11-03T08:05:38.440Z,9.90
2022-11-03T08:08:42.450Z,10.10
2022-11-03T08:11:46.852Z,10.35
2022-11-03T08:14:51.026Z,10.48
2022-11-03T08:17:56.315Z,10.45
2022-11-03T08:21:00.727Z,10.53
2022-11-03T08:24:05.591Z,10.76
2022-11-03T08:27:09.802Z,11.29
2022-11-03T08:30:13.894Z,11.09
2022-11-03T08:33:19.038Z,11.14
2022-11-03T08:36:23.166Z,11.04
2022-11-03T08:39:27.197Z,11.12
2022-11-03T08:42:30.946Z,10.97
2022-11-03T08:45:35.143Z,10.90
2022-11-03T08:48:39.132Z,10.99
2022-11-03T08:51:44.591Z,11.33
2022-11-03T08:54:48.782Z,11.63
2022-11-03T08:57:52.532Z,11.66
2022-11-03T09:00:56.575Z,11.71
2022-11-03T09:04:00.939Z,11.83
2022-11-03T09:07:05.068Z,11.85
2022-11-03T09:13:21.764Z,11.90
2022-11-03T09:16:25.544Z,12.02
2022-11-03T09:19:29.277Z,11.98
2022-11-03T09:22:33.398Z,11.91
2022-11-03T09:25:38.617Z,11.94
2022-11-03T09:28:42.687Z,11.88
2022-11-03T09:31:46.628Z,11.89
2022-11-03T09:34:50.713Z,11.93
2022-11-03T09:37:54.963Z,11.87
2022-11-03T09:40:59.842Z,11.88
2022-11-03T09:44:04.199Z,11.86
2022-11-03T09:47:15.902Z,11.88
2022-11-03T09:50:20.757Z,11.86
2022-11-03T09:53:24.643Z,11.92
2022-11-03T09:56:28.386Z,12.07
2022-11-03T09:59:32.538Z,12.13
2022-11-03T10:02:38.819Z,12.25
2022-11-03T10:05:45.007Z,12.37
2022-11-03T10:08:49.468Z,12.45
2022-11-03T10:11:54.693Z,12.48
2022-11-03T10:14:59.449Z,12.54
2022-11-03T10:18:03.450Z,12.71
2022-11-03T10:21:16.265Z,12.76
2022-11-03T10:24:20.361Z,12.78
2022-11-03T10:27:25.694Z,12.76
2022-11-03T10:30:32.572Z,12.93
2022-11-03T10:33:50.291Z,12.91
2022-11-03T10:37:12.655Z,13.07
2022-11-03T10:40:47.878Z,13.39
2022-11-03T10:44:19.195Z,13.32
2022-11-03T10:47:33.690Z,13.35
2022-11-03T10:50:40.188Z,13.28
2022-11-03T10:53:44.224Z,13.33
2022-11-03T10:56:50.737Z,13.49
2022-11-03T10:59:55.824Z,13.55
2022-11-03T11:03:00.883Z,13.67
2022-11-03T11:06:04.654Z,13.73
2022-11-03T11:09:11.422Z,13.92
2022-11-03T11:12:22.466Z,13.94
2022-11-03T11:15:44.946Z,14.02
2022-11-03T11:18:48.601Z,13.97
2022-11-03T11:21:52.486Z,13.93
2022-11-03T11:24:57.477Z,13.92
2022-11-03T11:28:11.809Z,14.03
2022-11-03T11:32:05.685Z,14.04
2022-11-03T11:35:30.256Z,14.10
2022-11-03T11:38:51.346Z,14.21
2022-11-03T11:42:07.758Z,14.16
2022-11-03T11:45:12.068Z,14.22
2022-11-03T11:48:19.306Z,14.32
2022-11-03T11:51:24.636Z,14.44
2022-11-03T11:54:34.920Z,14.50
2022-11-03T11:57:39.251Z,14.52
2022-11-03T12:00:59.756Z,14.62
2022-11-03T12:04:14.047Z,14.59
2022-11-03T12:07:32.843Z,14.44
2022-11-03T12:10:36.712Z,14.55
2022-11-03T12:13:51.210Z,14.38
2022-11-03T12:16:56.743Z,14.37
2022-11-03T12:20:00.543Z,14.33
2022-11-03T12:23:04.457Z,14.26
2022-11-03T12:26:19.101Z,14.43
2022-11-03T12:29:23.208Z,14.44
2022-11-03T12:32:33.392Z,14.38
2022-11-03T12:35:38.593Z,14.38
2022-11-03T12:38:42.396Z,14.49
2022-11-03T12:41:46.484Z,14.52
2022-11-03T12:44:50.792Z,14.54
2022-11-03T12:47:54.774Z,14.61
2022-11-03T12:50:58.501Z,14.49
2022-11-03T12:54:02.279Z,14.49
2022-11-03T12:57:06.453Z,14.45
2022-11-03T13:00:10.996Z,14.37
2022-11-03T13:03:15.091Z,14.38
2022-11-03T13:06:18.828Z,14.28
2022-11-03T13:09:23.158Z,14.20
2022-11-03T13:12:33.773Z,14.21
2022-11-03T13:15:37.639Z,14.17
2022-11-03T13:18:41.790Z,14.24
2022-11-03T13:21:45.718Z,14.33
2022-11-03T13:24:49.556Z,14.53
2022-11-03T13:27:56.980Z,14.54
2022-11-03T13:31:01.203Z,14.70
2022-11-03T13:34:05.740Z,14.73
2022-11-03T13:37:09.763Z,14.65
2022-11-03T13:40:35.769Z,14.60
2022-11-03T13:43:39.780Z,14.67
2022-11-03T13:46:43.715Z,14.59
2022-11-03T14:00:02.043Z,14.65
2022-11-03T14:06:33.389Z,14.64
2022-11-03T14:12:46.026Z,14.52
2022-11-03T14:15:50.248Z,14.54
2022-11-03T14:18:54.468Z,14.49
2022-11-03T14:21:58.603Z,14.45
2022-11-03T14:25:03.083Z,14.40
2022-11-03T14:28:07.325Z,14.54
2022-11-03T14:31:11.415Z,14.53
2022-11-03T14:34:15.354Z,14.59
2022-11-03T14:37:20.020Z,14.51
2022-11-03T14:40:43.272Z,14.42
2022-11-03T14:43:47.358Z,14.41
2022-11-03T14:46:51.148Z,14.35
2022-11-03T14:49:54.909Z,14.34
2022-11-03T14:52:59.974Z,14.24
2022-11-03T14:56:04.345Z,14.09
2022-11-03T14:59:08.471Z,14.08
2022-11-03T15:02:12.233Z,14.04
2022-11-03T15:05:35.079Z,14.01
2022-11-03T15:08:39.351Z,13.88
2022-11-03T15:11:44.234Z,13.86
2022-11-03T15:14:48.440Z,13.76
2022-11-03T15:17:52.259Z,13.72
2022-11-03T15:20:55.774Z,13.71
2022-11-03T15:27:23.779Z,13.72
2022-11-03T15:30:27.957Z,13.67
2022-11-03T15:33:32.039Z,13.66
2022-11-03T15:36:36.402Z,13.67
2022-11-03T15:39:40.536Z,13.50
2022-11-03T15:42:44.393Z,13.52
2022-11-03T15:45:48.238Z,13.48
2022-11-03T15:48:54.346Z,13.38
2022-11-03T15:51:58.305Z,13.44
2022-11-03T15:55:02.615Z,13.39
2022-11-03T15:58:07.161Z,13.32
2022-11-03T16:01:11.540Z,13.29
2022-11-03T16:04:16.222Z,13.30
2022-11-03T16:07:20.092Z,13.33
2022-11-03T16:10:23.887Z,13.37
2022-11-03T16:13:27.701Z,13.39
2022-11-03T16:16:31.764Z,13.28
2022-11-03T16:19:35.855Z,13.27
2022-11-03T16:22:39.859Z,13.17
2022-11-03T16:25:44.226Z,13.22
2022-11-03T16:28:48.098Z,13.11
2022-11-03T16:31:52.053Z,13.27
2022-11-03T16:34:56.050Z,13.26
2022-11-03T16:37:59.943Z,13.22
2022-11-03T16:41:04.063Z,13.06
2022-11-03T16:44:07.862Z,13.01
2022-11-03T16:47:11.850Z,13.01
2022-11-03T16:50:19.136Z,13.08
2022-11-03T16:53:22.899Z,12.92
2022-11-03T16:56:26.918Z,12.91
2022-11-03T16:59:30.833Z,13.03
2022-11-03T17:02:35.004Z,13.01
2022-11-03T17:05:39.280Z,12.94
2022-11-03T17:08:58.242Z,12.82
2022-11-03T17:12:02.498Z,12.79
2022-11-03T17:15:07.159Z,12.79
2022-11-03T17:18:11.149Z,12.71
2022-11-03T17:21:14.960Z,12.72
2022-11-03T17:24:18.898Z,12.64
2022-11-03T17:27:27.495Z,12.54
2022-11-03T17:30:34.353Z,12.54
2022-11-03T17:33:39.098Z,12.56
2022-11-03T17:36:43.237Z,12.58
2022-11-03T17:39:47.341Z,12.52
2022-11-03T17:42:51.582Z,12.45
2022-11-03T17:45:55.665Z,12.48
2022-11-03T17:48:59.493Z,12.40
2022-11-03T17:52:03.710Z,12.36
2022-11-03T17:55:17.647Z,12.36
2022-11-03T17:58:32.442Z,12.28
2022-11-03T18:01:37.647Z,12.28
2022-11-03T18:04:41.961Z,12.11
2022-11-03T18:07:45.811Z,12.15
2022-11-03T18:10:53.163Z,12.06
2022-11-03T18:13:57.434Z,12.08
2022-11-03T18:17:01.801Z,11.97
2022-11-03T18:20:15.867Z,11.87
2022-11-03T18:23:24.158Z,11.93
2022-11-03T18:26:28.294Z,11.99
2022-11-03T18:29:32.334Z,12.07
2022-11-03T18:32:37.479Z,12.01
2022-11-03T18:35:41.596Z,12.03
2022-11-03T18:38:46.736Z,11.99
2022-11-03T18:41:51.658Z,11.85
2022-11-03T18:45:01.440Z,11.77
2022-11-03T18:48:07.452Z,11.81
2022-11-03T18:51:11.208Z,11.92
2022-11-03T18:57:26.381Z,11.88
2022-11-03T19:00:31.121Z,11.77
2022-11-03T19:03:35.277Z,11.72
2022-11-03T19:06:39.194Z,11.71
2022-11-03T19:09:43.916Z,11.73
2022-11-03T19:12:48.414Z,11.63
2022-11-03T19:15:53.180Z,11.65
2022-11-03T19:18:57.349Z,11.65
2022-11-03T19:22:01.591Z,11.53
2022-11-03T19:25:06.862Z,11.46
2022-11-03T19:28:14.022Z,11.40
2022-11-03T19:31:22.885Z,11.39
2022-11-03T19:34:30.304Z,11.42
2022-11-03T19:37:36.125Z,11.43
2022-11-03T19:41:02.208Z,11.32
2022-11-03T19:44:10.468Z,11.26
2022-11-03T19:47:18.926Z,11.30
2022-11-03T19:50:36.285Z,11.22
2022-11-03T19:53:45.947Z,11.29
2022-11-03T19:56:51.299Z,11.27
2022-11-03T19:59:58.865Z,11.38
2022-11-03T20:03:03.199Z,11.43
2022-11-03T20:06:08.171Z,11.32
2022-11-03T20:09:18.344Z,11.25
2022-11-03T20:12:22.264Z,11.33
2022-11-03T20:15:26.205Z,11.20
2022-11-03T20:18:31.004Z,11.10
2022-11-03T20:21:35.050Z,11.08
2022-11-03T20:24:39.298Z,10.99
2022-11-03T20:27:42.846Z,10.99
2022-11-03T20:30:47.375Z,10.82
2022-11-03T20:33:51.417Z,10.78
2022-11-03T20:36:55.329Z,10.84
2022-11-03T20:39:58.930Z,10.77
2022-11-03T20:43:02.871Z,10.85
2022-11-03T20:46:20.819Z,10.80
2022-11-03T20:49:25.121Z,10.81
2022-11-03T20:52:29.128Z,10.83
2022-11-03T20:55:34.809Z,10.88
2022-11-03T20:58:38.774Z,10.88
2022-11-03T21:01:43.688Z,10.96
2022-11-03T21:04:48.031Z,11.11
2022-11-03T21:07:52.358Z,11.11
2022-11-03T21:11:16.571Z,11.15
2022-11-03T21:14:27.639Z,11.13
2022-11-03T21:17:50.453Z,11.17
2022-11-03T21:20:54.710Z,11.18
2022-11-03T21:23:58.762Z,11.21
2022-11-03T21:27:02.436Z,11.24
2022-11-03T21:30:07.672Z,11.19
2022-11-03T21:33:12.161Z,11.12
2022-11-03T21:36:16.195Z,11.05
2022-11-03T21:39:20.119Z,11.03
2022-11-03T21:42:42.955Z,10.97
2022-11-03T21:45:47.052Z,10.90
2022-11-03T21:49:09.560Z,10.91
2022-11-03T21:52:16.830Z,10.79
2022-11-03T21:55:21.211Z,10.79
2022-11-03T21:58:25.292Z,10.76
2022-11-03T22:01:29.447Z,10.69
2022-11-03T22:04:33.860Z,10.58
2022-11-03T22:07:38.031Z,10.54
2022-11-03T22:10:41.890Z,10.52
2022-11-03T22:13:45.833Z,10.52
2022-11-03T22:16:49.857Z,10.52
2022-11-03T22:20:13.114Z,10.54
2022-11-03T22:23:36.062Z,10.59
2022-11-03T22:26:55.365Z,10.59
2022-11-03T22:30:18.655Z,10.61
2022-11-03T22:33:22.806Z,10.52
2022-11-03T22:36:28.414Z,10.52
2022-11-03T22:39:50.934Z,10.44
2022-11-03T22:43:24.172Z,10.32
2022-11-03T22:46:28.002Z,10.23
2022-11-03T22:49:32.031Z,10.19
2022-11-03T22:52:35.885Z,10.15
2022-11-03T22:55:39.616Z,10.19
2022-11-03T22:58:43.839Z,10.16
2022-11-03T23:01:48.010Z,10.16
2022-11-03T23:04:52.116Z,10.19
2022-11-03T23:07:56.318Z,10.24
2022-11-03T23:11:09.107Z,10.28
2022-11-03T23:14:13.340Z,10.37
2022-11-03T23:17:17.340Z,10.36
2022-11-03T23:20:39.974Z,10.42
2022-11-03T23:24:02.550Z,10.49
2022-11-03T23:27:07.738Z,10.44
2022-11-03T23:30:12.118Z,10.43
2022-11-03T23:33:16.006Z,10.42
2022-11-03T23:36:20.579Z,10.38
2022-11-03T23:39:24.570Z,10.28
2022-11-03T23:42:28.330Z,10.15
2022-11-03T23:45:54.057Z,10.10
2022-11-03T23:48:58.786Z,10.13
2022-11-03T23:52:02.894Z,10.11
2022-11-03T23:55:07.396Z,10.35
2022-11-03T23:58:21.594Z,10.31
